Birmingham, AL (35229)

12:04 PM CST on January 26, 2015 (GMT -0600)
Homewood, Saulter at Raymond | Change Station
CLOSE
Current Station
Personal Weather Station
Location: Birmingham, AL
Elevation: 784 ft
Nearby Weather Stations

Elev 784 ft 33.46 °N, 86.81 °W | Updated 2 minutes ago

Overcast
Overcast
42.4 °F
Feels Like 42 °F
N
2.7
Wind Variable Wind from WSW

Today
High -- | Low -- °F
--% Chance of Precip.
Yesterday
High -- | Low -- °F
Precip. -- in
6:47 AM 5:12 PM
Waxing Crescent, 45% visible
Pressure 30.03 in
Visibility 10.0 miles
Clouds Overcast 2100 ft
Windchill 42 °F
Dew Point 35 °F
Humidity 76%
Rainfall 0.00 in
Snow Depth Not available.
UV 1 out of 12
Pollen 1.60 out of 12
Air Quality Not available.
Flu Activity Not available.
METAR KBHM 261753Z 31011G18KT 10SM OVC021 04/M01 A3003 RMK AO2 SLP169 60000 T00441006 10056 20033 50006

More Conditions Fewer Conditions

Pressure 30.03 in
Visibility 10.0 miles
Clouds Overcast 2100 ft
Windchill 42 °F
Dew Point 35 °F
Humidity 76%
Rainfall 0.00 in
Snow Depth Not available.
UV 1 out of 12
Pollen 1.60 out of 12
Air Quality Not available.
Flu Activity Not available.
METAR KBHM 261753Z 31011G18KT 10SM OVC021 04/M01 A3003 RMK AO2 SLP169 60000 T00441006 10056 20033 50006

More Conditions Fewer Conditions

10-Day Weather Forecast

Almanac

Astronomy

Jan. 26, 2015 Rise Set
Actual Time
Civil Twilight
Nautical Twilight
Astronomical Twilight
Moon
Length of Visible Light
Length of Day
Tomorrow will be .
, % of the Moon is Illuminated

Today's Extremes

State Highs State Lows

Community

WunderPhotos

Upload Photos

1,790,304 photos uploaded!

WunderBlogs® & News

Nearby

Air Quality

  Air Quality AQ Index Pollutant
Not available.

Snow Depth

Station Depth Elevation

Earthquake Activity

City Distance Mag. Time & Date
Minimum magnitude displayed is 2.5.

Coastal Water Temperatures

Place Temperature

Nearby Weather Stations